^^
Station Historical Data
Daily Summary for August 18, 2017 Units:  English    Metric   Both
« Previous Day
Next Day »
Daily Weekly Monthly Yearly Custom
  High: Low: Average:
Temperature: 82.9 °F 70.5 °F 74.9 °F
Dew Point: 77.4 °F 67.8 °F 72.9 °F
Humidity: 96% 82% 93%
Wind Speed: 6.0mph 0.0mph 1.1mph
Wind Gust: 15.0mph - -
Wind- - SSW
Pressure: 29.97 in 29.76 in -
Precipitation: 0.61 in    
Historical Graphs
 
 
Tabular Data for August 18, 2017
Time Temperature Dew Point Pressure Wind Wind Speed Wind Gust Humidity Rainfall Rate (Hourly) Conditions
00:00 70.6 °F 67.8 °F 29.97 in Calm   2.0 mph 91% 0.00 in CLR
00:15 70.6 °F 68.2 °F 29.97 in Calm   2.0 mph 92% 0.00 in FEW
00:30 70.5 °F 68.1 °F 29.96 in Calm   2.0 mph 92% 0.00 in FEW
00:45 70.5 °F 68.4 °F 29.96 in Calm   2.0 mph 93% 0.00 in FEW
01:00 70.5 °F 68.4 °F 29.95 in Calm   2.0 mph 93% 0.00 in FEW
02:15 71.2 °F 69.7 °F 29.92 in Calm   3.0 mph 95% 0.00 in FEW
02:30 71.5 °F 70.0 °F 29.92 in Calm   4.0 mph 95% 0.00 in FEW
02:45 71.9 °F 70.4 °F 29.92 in Calm   2.0 mph 95% 0.00 in FEW
03:00 72.0 °F 70.5 °F 29.92 in Calm   4.0 mph 95% 0.00 in FEW
03:15 72.0 °F 70.5 °F 29.92 in Calm   2.0 mph 95% 0.00 in BKN
03:30 72.1 °F 70.6 °F 29.92 in Calm   2.0 mph 95% 0.00 in BKN
03:45 72.3 °F 70.8 °F 29.91 in Calm   3.0 mph 95% 0.00 in BKN
04:00 72.3 °F 70.8 °F 29.91 in Calm   3.0 mph 95% 0.00 in BKN
04:15 72.3 °F 70.8 °F 29.91 in Calm   2.0 mph 95% 0.00 in BKN
04:30 72.2 °F 70.7 °F 29.91 in Calm   1.0 mph 95% 0.00 in BKN
04:45 72.3 °F 71.1 °F 29.90 in Calm   1.0 mph 96% 0.00 in BKN
05:00 72.4 °F 71.2 °F 29.90 in Calm   1.0 mph 96% 0.00 in BKN
05:15 72.5 °F 71.3 °F 29.90 in Calm   3.0 mph 96% 0.00 in OVC
05:30 72.6 °F 71.4 °F 29.89 in Calm   1.0 mph 96% 0.00 in OVC
05:45 72.7 °F 71.5 °F 29.89 in SW 1.0 mph 3.0 mph 96% 0.00 in OVC
06:00 72.9 °F 71.4 °F 29.90 in Calm   3.0 mph 95% 0.00 in OVC
06:15 73.1 °F 71.6 °F 29.90 in Calm   4.0 mph 95% 0.00 in OVC
06:30 73.2 °F 71.7 °F 29.90 in Calm   2.0 mph 95% 0.00 in OVC
06:45 73.3 °F 71.5 °F 29.89 in Calm   3.0 mph 94% 0.00 in OVC
07:00 73.4 °F 71.6 °F 29.90 in Calm   4.0 mph 94% 0.00 in OVC
07:15 73.5 °F 71.7 °F 29.89 in SW 1.0 mph 4.0 mph 94% 0.00 in -RA
07:30 73.7 °F 71.9 °F 29.90 in Calm   3.0 mph 94% 0.01 in -RA
07:45 73.5 °F 71.7 °F 29.90 in SW 1.0 mph 2.0 mph 94% 0.01 in -RA
08:00 72.6 °F 70.4 °F 29.89 in South 2.0 mph 8.0 mph 93% 0.32 in -RA
08:15 72.0 °F 70.5 °F 29.89 in Calm   5.0 mph 95% 0.15 in -RA
08:30 72.0 °F 70.5 °F 29.89 in SW 1.0 mph 6.0 mph 95% 0.00 in -RA
08:45 72.0 °F 70.8 °F 29.89 in SW 1.0 mph 4.0 mph 96% 0.00 in -RA
09:00 72.2 °F 71.0 °F 29.88 in Calm   2.0 mph 96% 0.00 in -RA
09:15 72.8 °F 71.6 °F 29.88 in Calm   3.0 mph 96% 0.00 in BKN
09:30 72.7 °F 71.5 °F 29.88 in Calm   2.0 mph 96% 0.02 in RA
09:45 72.9 °F 71.7 °F 29.88 in Calm   2.0 mph 96% 0.00 in BKN
10:00 73.3 °F 72.0 °F 29.88 in SW 1.0 mph 5.0 mph 96% 0.00 in BKN
10:15 73.7 °F 72.5 °F 29.88 in SSW 1.0 mph 3.0 mph 96% 0.00 in -RA
10:30 74.2 °F 73.0 °F 29.88 in Calm   2.0 mph 96% 0.00 in -RA
10:45 74.5 °F 73.3 °F 29.88 in Calm   5.0 mph 96% 0.00 in -RA
11:00 74.3 °F 72.8 °F 29.88 in SSW 1.0 mph 4.0 mph 95% 0.00 in -RA
11:15 74.5 °F 73.3 °F 29.88 in SSW 1.0 mph 4.0 mph 96% 0.00 in -RA
11:30 74.7 °F 73.5 °F 29.87 in SW 2.0 mph 6.0 mph 96% 0.00 in -RA
11:45 74.6 °F 73.4 °F 29.87 in SW 2.0 mph 7.0 mph 96% 0.00 in -RA
12:00 74.9 °F 73.7 °F 29.86 in SW 1.0 mph 6.0 mph 96% 0.00 in -RA
12:15 75.1 °F 73.9 °F 29.86 in SW 1.0 mph 5.0 mph 96% 0.00 in -DZ
12:30 75.6 °F 74.4 °F 29.85 in SSW 1.0 mph 6.0 mph 96% 0.00 in -DZ
12:45 76.1 °F 74.6 °F 29.85 in SSW 1.0 mph 7.0 mph 95% 0.00 in -DZ
13:00 76.4 °F 74.5 °F 29.85 in South 3.0 mph 8.0 mph 94% 0.00 in -DZ
13:15 76.5 °F 74.6 °F 29.84 in SSW 3.0 mph 7.0 mph 94% 0.00 in OVC
13:30 76.8 °F 74.9 °F 29.85 in SW 2.0 mph 7.0 mph 94% 0.00 in OVC
13:45 77.1 °F 75.3 °F 29.84 in SW 1.0 mph 5.0 mph 94% 0.00 in OVC
14:00 78.0 °F 76.2 °F 29.84 in SW 1.0 mph 7.0 mph 94% 0.00 in OVC
14:15 79.9 °F 77.1 °F 29.83 in South 3.0 mph 7.0 mph 91% 0.00 in OVC
14:30 81.0 °F 76.8 °F 29.83 in SSW 5.0 mph 9.0 mph 87% 0.00 in OVC
14:45 81.8 °F 77.2 °F 29.82 in SW 6.0 mph 12.0 mph 86% 0.00 in OVC
15:00 82.7 °F 77.4 °F 29.81 in SSW 2.0 mph 12.0 mph 84% 0.00 in OVC
15:15 82.8 °F 77.1 °F 29.81 in SSW 5.0 mph 9.0 mph 83% 0.00 in -RA
15:30 82.4 °F 77.1 °F 29.80 in SSW 2.0 mph 9.0 mph 84% 0.00 in -RA
15:45 82.9 °F 77.2 °F 29.79 in SW 2.0 mph 10.0 mph 83% 0.00 in -RA
16:00 82.8 °F 76.7 °F 29.78 in SSW 5.0 mph 12.0 mph 82% 0.00 in -RA
16:15 82.3 °F 77.0 °F 29.78 in South 1.0 mph 7.0 mph 84% 0.00 in BKN
16:30 81.7 °F 77.1 °F 29.78 in Calm   7.0 mph 86% 0.00 in BKN
16:45 81.2 °F 77.0 °F 29.78 in SW 1.0 mph 7.0 mph 87% 0.00 in BKN
17:00 80.7 °F 77.2 °F 29.77 in Calm   4.0 mph 89% 0.00 in BKN
17:15 79.8 °F 76.6 °F 29.77 in SW 3.0 mph 7.0 mph 90% 0.00 in BKN
17:30 79.0 °F 76.1 °F 29.78 in Calm   7.0 mph 91% 0.00 in BKN
17:45 78.6 °F 76.1 °F 29.79 in South 1.0 mph 5.0 mph 92% 0.00 in BKN
18:00 78.3 °F 75.8 °F 29.80 in SSW 1.0 mph 4.0 mph 92% 0.00 in BKN
18:30 77.8 °F 75.9 °F 29.80 in South 2.0 mph 5.0 mph 94% 0.00 in BKN
18:45 77.5 °F 75.6 °F 29.79 in Calm   5.0 mph 94% 0.02 in RA
19:00 77.2 °F 75.7 °F 29.79 in SSW 1.0 mph 2.0 mph 95% 0.01 in RA
19:15 77.0 °F 75.5 °F 29.78 in Calm   5.0 mph 95% 0.02 in RA
19:45 76.8 °F 75.6 °F 29.79 in SSW 1.0 mph 6.0 mph 96% 0.01 in BKN
20:00 76.6 °F 75.4 °F 29.79 in SSW 3.0 mph 9.0 mph 96% 0.00 in BKN
20:15 75.9 °F 74.4 °F 29.78 in SSW 5.0 mph 15.0 mph 95% 0.01 in RA
20:30 75.1 °F 73.3 °F 29.77 in SW 1.0 mph 7.0 mph 94% 0.00 in
20:45 74.4 °F 72.5 °F 29.76 in SSW 2.0 mph 6.0 mph 94% 0.00 in
21:00 73.7 °F 71.8 °F 29.77 in Calm   6.0 mph 94% 0.00 in
21:15 73.1 °F 71.2 °F 29.78 in South 1.0 mph 4.0 mph 94% 0.00 in SCT
21:30 72.6 °F 70.5 °F 29.79 in South 3.0 mph 7.0 mph 93% 0.00 in SCT
21:45 72.5 °F 70.3 °F 29.80 in Calm   6.0 mph 93% 0.00 in SCT
22:00 72.4 °F 70.5 °F 29.81 in SSW 2.0 mph 6.0 mph 94% 0.00 in SCT
22:30 72.2 °F 70.4 °F 29.81 in Calm   3.0 mph 94% 0.00 in FEW
22:45 72.2 °F 70.7 °F 29.82 in South 2.0 mph 7.0 mph 95% 0.00 in FEW
23:00 72.5 °F 71.0 °F 29.81 in SW 3.0 mph 9.0 mph 95% 0.00 in FEW
23:30 72.6 °F 71.1 °F 29.82 in SW 3.0 mph 8.0 mph 95% 0.00 in SCT
23:45 72.6 °F 71.1 °F 29.81 in SSW 1.0 mph 5.0 mph 95% 0.00 in SCT
TarryTown NY Weather
Compliments of Weather Underground - 1.5 mb